CheckWX is a tool to help pilots better visualize weather data.  It is not intended as a substitute for an official pre-flight weather briefing.

08:51:26 UTC

LQBK TAF
Banja Luka International Airport
Banja Luka, Bosnia and Herzegovina
TAF LQBK 250500Z 2506/2606 17005KT CAVOK TX20/2513Z TNM02/2506Z TEMPO 2511/2604 24012KT PROB30 TEMPO 2513/2517 25015G25KT

Feb-25@
06:00 UTC

Feb-25 @ 06:00 UTC

Feb-26@
06:00 UTC

Feb-26 @ 06:00 UTC

TAF LQBK 250500Z 2506/2606 17005KT CAVOK TX20/2513Z TNM02/2506Z
Wind
  • 170° at 5 KTS
Cloud Levels
  • No significant clouds

Feb-25@
11:00 UTC

Feb-25 @ 11:00 UTC

Feb-26@
04:00 UTC

Feb-26 @ 04:00 UTC

TEMPO 2511/2604 24012KT

Temporary

Temporary Changes expected for less than half the time period

Wind
  • 240° at 12 KTS

Feb-25@
13:00 UTC

Feb-25 @ 13:00 UTC

Feb-25@
17:00 UTC

Feb-25 @ 17:00 UTC

PROB30 TEMPO 2513/2517 25015G25KT

Temporary - 30% Likelihood

Temporary - 30% Likelihood during this time.

Wind
  • 250° at 15 KTS
  • {Gusting to 25 KTS